Coral Springs, Florida
Current Conditions -  °F | °C
As of 7:53 AM on Friday 31 Oct 2014 (Local Time) from KFXE Reporting Station
Clear Clear  
Wind Chill: 70°   Ceiling: Unl
Heat Index: 70°   Visibility: 10mi
Dew Point: 66°   Wind: 6mph
Humidity: 87%   Direction: 250°WSW
Pressure: 29.85"   Gusts: NA
Location:  26.27°N, 80.25°W
Report Text: KFXE 311153Z 25005KT 10SM CLR 21/19 A2985 RMK AO2 SLP111 T02110189 10228 20200 53010
Loading
Personal Weather Stations






























Interactive Weather Map
Tropical Storm Tracking
New forecast layout! Learn more

10-Day Weather Forecast

Advertisements
Track Severe Weather on mobile